Hopewell, New Jersey
Current Conditions -  °F | °C
As of 11:31 AM on Monday 24 Nov 2014 (Local Time) from KTTN Reporting Station
Broken Clouds Broken Clouds  
Wind Chill: 70°   Ceiling: 3100
Heat Index: 70°   Visibility: 10mi
Dew Point: 58°   Wind: 21mph
Humidity: 65%   Direction: 230°SW
Pressure: 29.63"   Gusts: 33mph
Location:  40.39°N, 74.76°W
Report Text: KTTN 241631Z 23018G29KT 10SM SCT026 BKN031 21/14 A2963 RMK AO2 PK WND 22029/1626 T02110144
Loading
Personal Weather Stations






























Interactive Weather Map New forecast layout! Learn more

10-Day Weather Forecast

Advertisements
Track Severe Weather on mobile